Terminal Aerodrome Forecast
Issued by NWS Nashville, TN

Home | Current Version | Previous Version | Text Only | Print | Product List | Glossary On
Versions: 1 2 3 4 5 6 7 8 9 10 11 12 13 14 15 16 17 18 19 20 21 22 23 24 25 26 27 28 29 30 31 32 33 34
000
FTUS44 KOHX 270700 CCB
TAFCSV
TAF COR
KCSV 270726Z 2707/2806 29004KT 6SM BR SCT003
      TEMPO 2707/2709 3SM BR BKN003
     FM271400 02008G16KT P6SM SKC
     FM280000 02004KT P6SM SKC=

USA.gov is the U.S. government's official web portal to all federal, state and local government web resources and services.